sensor_id;sensor_type;location;lat;lon;timestamp;P1;durP1;ratioP1;P2;durP2;ratioP2
1775;SDS011;885;42.626;23.200;2023-09-19T00:00:26;13.20;;;11.80;;
1775;SDS011;885;42.626;23.200;2023-09-19T00:02:53;12.67;;;11.27;;
1775;SDS011;885;42.626;23.200;2023-09-19T00:05:22;13.60;;;11.63;;
1775;SDS011;885;42.626;23.200;2023-09-19T00:07:52;12.53;;;11.23;;
1775;SDS011;885;42.626;23.200;2023-09-19T00:10:20;12.27;;;10.90;;
1775;SDS011;885;42.626;23.200;2023-09-19T00:12:49;13.70;;;11.30;;
1775;SDS011;885;42.626;23.200;2023-09-19T00:15:17;12.07;;;10.97;;
1775;SDS011;885;42.626;23.200;2023-09-19T00:17:45;12.17;;;10.73;;
1775;SDS011;885;42.626;23.200;2023-09-19T00:20:12;12.20;;;10.87;;
1775;SDS011;885;42.626;23.200;2023-09-19T00:22:42;10.67;;;9.57;;
1775;SDS011;885;42.626;23.200;2023-09-19T00:25:09;11.70;;;10.50;;
1775;SDS011;885;42.626;23.200;2023-09-19T00:27:37;11.17;;;10.17;;
1775;SDS011;885;42.626;23.200;2023-09-19T00:30:07;10.70;;;9.57;;
1775;SDS011;885;42.626;23.200;2023-09-19T00:32:39;11.20;;;10.10;;
1775;SDS011;885;42.626;23.200;2023-09-19T00:35:08;12.60;;;11.40;;
1775;SDS011;885;42.626;23.200;2023-09-19T00:37:35;11.20;;;10.10;;
1775;SDS011;885;42.626;23.200;2023-09-19T00:40:03;12.03;;;10.77;;
1775;SDS011;885;42.626;23.200;2023-09-19T00:42:31;11.20;;;10.10;;
1775;SDS011;885;42.626;23.200;2023-09-19T00:44:58;11.57;;;10.40;;
1775;SDS011;885;42.626;23.200;2023-09-19T00:47:28;12.23;;;11.03;;
1775;SDS011;885;42.626;23.200;2023-09-19T00:49:56;13.57;;;11.87;;
1775;SDS011;885;42.626;23.200;2023-09-19T00:52:24;12.90;;;11.60;;
1775;SDS011;885;42.626;23.200;2023-09-19T00:54:52;12.23;;;11.00;;
1775;SDS011;885;42.626;23.200;2023-09-19T00:57:19;12.67;;;11.47;;
1775;SDS011;885;42.626;23.200;2023-09-19T00:59:48;11.00;;;9.93;;
1775;SDS011;885;42.626;23.200;2023-09-19T01:02:16;11.60;;;10.40;;
1775;SDS011;885;42.626;23.200;2023-09-19T01:04:43;13.20;;;11.90;;
1775;SDS011;885;42.626;23.200;2023-09-19T01:07:11;12.63;;;10.80;;
1775;SDS011;885;42.626;23.200;2023-09-19T01:09:41;12.70;;;11.27;;
1775;SDS011;885;42.626;23.200;2023-09-19T01:12:09;11.77;;;10.63;;
1775;SDS011;885;42.626;23.200;2023-09-19T01:14:44;11.03;;;10.03;;
1775;SDS011;885;42.626;23.200;2023-09-19T01:17:24;11.20;;;10.10;;
1775;SDS011;885;42.626;23.200;2023-09-19T01:20:00;11.10;;;10.10;;
1775;SDS011;885;42.626;23.200;2023-09-19T01:22:37;11.73;;;10.53;;
1775;SDS011;885;42.626;23.200;2023-09-19T01:25:31;13.90;;;11.30;;
1775;SDS011;885;42.626;23.200;2023-09-19T01:28:15;11.60;;;10.50;;
1775;SDS011;885;42.626;23.200;2023-09-19T01:30:57;11.60;;;10.50;;
1775;SDS011;885;42.626;23.200;2023-09-19T01:33:26;11.73;;;10.40;;
1775;SDS011;885;42.626;23.200;2023-09-19T01:35:59;11.20;;;10.10;;
1775;SDS011;885;42.626;23.200;2023-09-19T01:38:26;12.23;;;11.13;;
1775;SDS011;885;42.626;23.200;2023-09-19T01:40:56;18.43;;;12.47;;
1775;SDS011;885;42.626;23.200;2023-09-19T01:43:31;10.60;;;9.60;;
1775;SDS011;885;42.626;23.200;2023-09-19T01:46:07;14.80;;;11.80;;
1775;SDS011;885;42.626;23.200;2023-09-19T01:48:40;11.80;;;10.50;;
1775;SDS011;885;42.626;23.200;2023-09-19T01:51:13;11.07;;;9.37;;
1775;SDS011;885;42.626;23.200;2023-09-19T01:53:48;11.63;;;10.53;;
1775;SDS011;885;42.626;23.200;2023-09-19T01:56:22;11.43;;;10.33;;
1775;SDS011;885;42.626;23.200;2023-09-19T01:58:56;10.73;;;8.77;;
1775;SDS011;885;42.626;23.200;2023-09-19T02:01:30;11.97;;;10.00;;
1775;SDS011;885;42.626;23.200;2023-09-19T02:03:58;13.10;;;10.90;;
1775;SDS011;885;42.626;23.200;2023-09-19T02:06:25;12.13;;;10.93;;
1775;SDS011;885;42.626;23.200;2023-09-19T02:08:52;12.30;;;11.00;;
1775;SDS011;885;42.626;23.200;2023-09-19T02:11:20;11.33;;;10.23;;
1775;SDS011;885;42.626;23.200;2023-09-19T02:13:47;11.30;;;10.03;;
1775;SDS011;885;42.626;23.200;2023-09-19T02:16:18;11.13;;;10.03;;
1775;SDS011;885;42.626;23.200;2023-09-19T02:18:47;11.03;;;9.93;;
1775;SDS011;885;42.626;23.200;2023-09-19T02:21:14;11.57;;;10.47;;
1775;SDS011;885;42.626;23.200;2023-09-19T02:23:42;11.60;;;10.37;;
1775;SDS011;885;42.626;23.200;2023-09-19T02:26:09;11.50;;;10.40;;
1775;SDS011;885;42.626;23.200;2023-09-19T02:28:36;11.47;;;10.40;;
1775;SDS011;885;42.626;23.200;2023-09-19T02:31:03;11.97;;;10.77;;
1775;SDS011;885;42.626;23.200;2023-09-19T02:33:31;12.80;;;11.43;;
1775;SDS011;885;42.626;23.200;2023-09-19T02:35:59;12.33;;;11.00;;
1775;SDS011;885;42.626;23.200;2023-09-19T02:38:28;11.60;;;10.40;;
1775;SDS011;885;42.626;23.200;2023-09-19T02:40:56;15.63;;;11.70;;
1775;SDS011;885;42.626;23.200;2023-09-19T02:43:23;11.90;;;10.70;;
1775;SDS011;885;42.626;23.200;2023-09-19T02:45:50;12.20;;;11.00;;
1775;SDS011;885;42.626;23.200;2023-09-19T02:48:18;12.07;;;10.73;;
1775;SDS011;885;42.626;23.200;2023-09-19T02:50:45;11.70;;;10.50;;
1775;SDS011;885;42.626;23.200;2023-09-19T02:53:14;12.13;;;10.80;;
1775;SDS011;885;42.626;23.200;2023-09-19T02:55:40;11.80;;;10.57;;
1775;SDS011;885;42.626;23.200;2023-09-19T02:58:08;11.83;;;10.57;;
1775;SDS011;885;42.626;23.200;2023-09-19T03:00:36;10.83;;;9.80;;
1775;SDS011;885;42.626;23.200;2023-09-19T03:03:04;12.00;;;10.80;;
1775;SDS011;885;42.626;23.200;2023-09-19T03:05:33;11.33;;;10.30;;
1775;SDS011;885;42.626;23.200;2023-09-19T03:08:00;11.70;;;10.20;;
1775;SDS011;885;42.626;23.200;2023-09-19T03:10:29;11.23;;;10.13;;
1775;SDS011;885;42.626;23.200;2023-09-19T03:12:56;11.97;;;10.53;;
1775;SDS011;885;42.626;23.200;2023-09-19T03:15:24;12.10;;;10.90;;
1775;SDS011;885;42.626;23.200;2023-09-19T03:17:51;12.63;;;11.33;;
1775;SDS011;885;42.626;23.200;2023-09-19T03:20:19;11.10;;;10.03;;
1775;SDS011;885;42.626;23.200;2023-09-19T03:22:46;11.80;;;10.70;;
1775;SDS011;885;42.626;23.200;2023-09-19T03:25:13;12.10;;;10.90;;
1775;SDS011;885;42.626;23.200;2023-09-19T03:27:41;13.07;;;11.77;;
1775;SDS011;885;42.626;23.200;2023-09-19T03:30:09;12.07;;;10.87;;
1775;SDS011;885;42.626;23.200;2023-09-19T03:32:43;11.23;;;10.13;;
1775;SDS011;885;42.626;23.200;2023-09-19T03:35:10;11.70;;;10.33;;
1775;SDS011;885;42.626;23.200;2023-09-19T03:37:39;11.93;;;9.93;;
1775;SDS011;885;42.626;23.200;2023-09-19T03:40:06;12.30;;;11.03;;
1775;SDS011;885;42.626;23.200;2023-09-19T03:42:37;15.53;;;11.00;;
1775;SDS011;885;42.626;23.200;2023-09-19T03:45:06;11.60;;;10.40;;
1775;SDS011;885;42.626;23.200;2023-09-19T03:47:37;11.23;;;9.70;;
1775;SDS011;885;42.626;23.200;2023-09-19T03:50:04;11.67;;;10.47;;
1775;SDS011;885;42.626;23.200;2023-09-19T03:52:33;11.80;;;9.33;;
1775;SDS011;885;42.626;23.200;2023-09-19T03:55:00;18.23;;;10.30;;
1775;SDS011;885;42.626;23.200;2023-09-19T03:57:27;11.13;;;9.50;;
1775;SDS011;885;42.626;23.200;2023-09-19T03:59:54;12.40;;;10.03;;
1775;SDS011;885;42.626;23.200;2023-09-19T04:02:22;12.50;;;10.70;;
1775;SDS011;885;42.626;23.200;2023-09-19T04:04:50;12.23;;;10.90;;
1775;SDS011;885;42.626;23.200;2023-09-19T04:07:17;11.97;;;9.50;;
1775;SDS011;885;42.626;23.200;2023-09-19T04:09:47;9.83;;;8.83;;
1775;SDS011;885;42.626;23.200;2023-09-19T04:12:14;11.43;;;9.77;;
1775;SDS011;885;42.626;23.200;2023-09-19T04:14:42;12.73;;;9.53;;
1775;SDS011;885;42.626;23.200;2023-09-19T04:17:08;12.40;;;9.70;;
1775;SDS011;885;42.626;23.200;2023-09-19T04:19:37;11.67;;;10.47;;
1775;SDS011;885;42.626;23.200;2023-09-19T04:22:04;12.93;;;10.17;;
1775;SDS011;885;42.626;23.200;2023-09-19T04:24:31;11.17;;;10.07;;
1775;SDS011;885;42.626;23.200;2023-09-19T04:26:59;11.53;;;10.33;;
1775;SDS011;885;42.626;23.200;2023-09-19T04:29:25;12.53;;;10.60;;
1775;SDS011;885;42.626;23.200;2023-09-19T04:31:54;11.53;;;10.33;;
1775;SDS011;885;42.626;23.200;2023-09-19T04:34:21;14.23;;;12.60;;
1775;SDS011;885;42.626;23.200;2023-09-19T04:36:50;10.97;;;9.87;;
1775;SDS011;885;42.626;23.200;2023-09-19T04:39:17;11.80;;;9.70;;
1775;SDS011;885;42.626;23.200;2023-09-19T04:41:46;9.50;;;8.50;;
1775;SDS011;885;42.626;23.200;2023-09-19T04:44:13;11.80;;;10.37;;
1775;SDS011;885;42.626;23.200;2023-09-19T04:46:39;10.93;;;9.77;;
1775;SDS011;885;42.626;23.200;2023-09-19T04:49:06;12.77;;;11.40;;
1775;SDS011;885;42.626;23.200;2023-09-19T04:51:33;11.87;;;10.63;;
1775;SDS011;885;42.626;23.200;2023-09-19T04:54:02;11.43;;;10.17;;
1775;SDS011;885;42.626;23.200;2023-09-19T04:56:30;12.30;;;11.00;;
1775;SDS011;885;42.626;23.200;2023-09-19T04:58:57;12.90;;;11.50;;
1775;SDS011;885;42.626;23.200;2023-09-19T05:01:24;13.67;;;12.37;;
1775;SDS011;885;42.626;23.200;2023-09-19T05:03:50;13.87;;;11.40;;
1775;SDS011;885;42.626;23.200;2023-09-19T05:06:17;12.83;;;11.50;;
1775;SDS011;885;42.626;23.200;2023-09-19T05:08:45;12.43;;;11.10;;
1775;SDS011;885;42.626;23.200;2023-09-19T05:11:13;12.13;;;10.93;;
1775;SDS011;885;42.626;23.200;2023-09-19T05:13:40;15.63;;;12.07;;
1775;SDS011;885;42.626;23.200;2023-09-19T05:16:06;15.33;;;11.13;;
1775;SDS011;885;42.626;23.200;2023-09-19T05:18:35;11.80;;;10.57;;
1775;SDS011;885;42.626;23.200;2023-09-19T05:21:02;12.63;;;10.20;;
1775;SDS011;885;42.626;23.200;2023-09-19T05:23:29;14.13;;;11.90;;
1775;SDS011;885;42.626;23.200;2023-09-19T05:25:56;13.30;;;10.87;;
1775;SDS011;885;42.626;23.200;2023-09-19T05:28:26;14.03;;;10.93;;
1775;SDS011;885;42.626;23.200;2023-09-19T05:30:53;12.47;;;11.17;;
1775;SDS011;885;42.626;23.200;2023-09-19T05:33:20;11.87;;;10.43;;
1775;SDS011;885;42.626;23.200;2023-09-19T05:35:47;11.57;;;9.70;;
1775;SDS011;885;42.626;23.200;2023-09-19T05:38:14;11.37;;;10.30;;
1775;SDS011;885;42.626;23.200;2023-09-19T05:40:44;11.23;;;9.00;;
1775;SDS011;885;42.626;23.200;2023-09-19T05:43:11;10.53;;;9.47;;
1775;SDS011;885;42.626;23.200;2023-09-19T05:45:41;11.17;;;9.80;;
1775;SDS011;885;42.626;23.200;2023-09-19T05:48:08;10.77;;;9.67;;
1775;SDS011;885;42.626;23.200;2023-09-19T05:50:36;10.10;;;8.33;;
1775;SDS011;885;42.626;23.200;2023-09-19T05:53:03;10.60;;;9.50;;
1775;SDS011;885;42.626;23.200;2023-09-19T05:55:30;10.90;;;9.80;;
1775;SDS011;885;42.626;23.200;2023-09-19T05:57:57;11.23;;;10.03;;
1775;SDS011;885;42.626;23.200;2023-09-19T06:00:25;10.80;;;9.27;;
1775;SDS011;885;42.626;23.200;2023-09-19T06:02:54;10.93;;;9.73;;
1775;SDS011;885;42.626;23.200;2023-09-19T06:05:22;13.20;;;9.40;;
1775;SDS011;885;42.626;23.200;2023-09-19T06:07:50;9.60;;;8.50;;
1775;SDS011;885;42.626;23.200;2023-09-19T06:10:17;10.20;;;9.20;;
1775;SDS011;885;42.626;23.200;2023-09-19T06:12:46;9.60;;;8.60;;
1775;SDS011;885;42.626;23.200;2023-09-19T06:15:13;9.17;;;8.37;;
1775;SDS011;885;42.626;23.200;2023-09-19T06:17:46;9.40;;;8.60;;
1775;SDS011;885;42.626;23.200;2023-09-19T06:20:15;8.53;;;7.50;;
1775;SDS011;885;42.626;23.200;2023-09-19T06:22:42;9.20;;;8.30;;
1775;SDS011;885;42.626;23.200;2023-09-19T06:25:11;9.17;;;8.27;;
1775;SDS011;885;42.626;23.200;2023-09-19T06:27:40;11.23;;;9.57;;
1775;SDS011;885;42.626;23.200;2023-09-19T06:30:08;13.23;;;7.60;;
1775;SDS011;885;42.626;23.200;2023-09-19T06:32:36;8.67;;;7.80;;
1775;SDS011;885;42.626;23.200;2023-09-19T06:35:03;11.20;;;7.40;;
1775;SDS011;885;42.626;23.200;2023-09-19T06:37:34;8.77;;;7.87;;
1775;SDS011;885;42.626;23.200;2023-09-19T06:40:00;9.70;;;7.50;;
1775;SDS011;885;42.626;23.200;2023-09-19T06:42:30;10.10;;;7.53;;
1775;SDS011;885;42.626;23.200;2023-09-19T06:44:57;8.27;;;7.50;;
1775;SDS011;885;42.626;23.200;2023-09-19T06:47:24;9.70;;;7.90;;
1775;SDS011;885;42.626;23.200;2023-09-19T06:49:52;8.40;;;7.53;;
1775;SDS011;885;42.626;23.200;2023-09-19T06:52:18;9.50;;;8.70;;
1775;SDS011;885;42.626;23.200;2023-09-19T06:54:48;8.70;;;7.80;;
1775;SDS011;885;42.626;23.200;2023-09-19T06:57:17;10.37;;;7.43;;
1775;SDS011;885;42.626;23.200;2023-09-19T06:59:45;8.70;;;7.80;;
1775;SDS011;885;42.626;23.200;2023-09-19T07:02:11;10.77;;;8.27;;
1775;SDS011;885;42.626;23.200;2023-09-19T07:04:40;9.67;;;7.80;;
1775;SDS011;885;42.626;23.200;2023-09-19T07:07:06;11.43;;;8.20;;
1775;SDS011;885;42.626;23.200;2023-09-19T07:09:34;9.13;;;8.20;;
1775;SDS011;885;42.626;23.200;2023-09-19T07:12:02;11.30;;;7.93;;
1775;SDS011;885;42.626;23.200;2023-09-19T07:14:29;7.73;;;7.03;;
1775;SDS011;885;42.626;23.200;2023-09-19T07:16:57;8.70;;;7.90;;
1775;SDS011;885;42.626;23.200;2023-09-19T07:19:25;9.27;;;8.10;;
1775;SDS011;885;42.626;23.200;2023-09-19T07:21:53;9.53;;;8.00;;
1775;SDS011;885;42.626;23.200;2023-09-19T07:24:20;8.63;;;7.17;;
1775;SDS011;885;42.626;23.200;2023-09-19T07:26:49;9.53;;;7.37;;
1775;SDS011;885;42.626;23.200;2023-09-19T07:29:17;8.77;;;7.43;;
1775;SDS011;885;42.626;23.200;2023-09-19T07:31:44;8.30;;;7.50;;
1775;SDS011;885;42.626;23.200;2023-09-19T07:34:12;8.57;;;7.70;;
1775;SDS011;885;42.626;23.200;2023-09-19T07:36:40;8.87;;;7.97;;
1775;SDS011;885;42.626;23.200;2023-09-19T07:39:07;9.10;;;8.03;;
1775;SDS011;885;42.626;23.200;2023-09-19T07:41:34;8.50;;;7.70;;
1775;SDS011;885;42.626;23.200;2023-09-19T07:44:01;10.63;;;7.53;;
1775;SDS011;885;42.626;23.200;2023-09-19T07:46:29;10.03;;;9.00;;
1775;SDS011;885;42.626;23.200;2023-09-19T07:48:57;8.20;;;7.47;;
1775;SDS011;885;42.626;23.200;2023-09-19T07:51:24;10.07;;;7.50;;
1775;SDS011;885;42.626;23.200;2023-09-19T07:53:51;7.60;;;6.90;;
1775;SDS011;885;42.626;23.200;2023-09-19T07:56:17;7.87;;;7.07;;
1775;SDS011;885;42.626;23.200;2023-09-19T07:58:45;8.10;;;7.30;;
1775;SDS011;885;42.626;23.200;2023-09-19T08:01:12;8.47;;;7.67;;
1775;SDS011;885;42.626;23.200;2023-09-19T08:03:42;11.67;;;7.90;;
1775;SDS011;885;42.626;23.200;2023-09-19T08:06:10;8.73;;;7.83;;
1775;SDS011;885;42.626;23.200;2023-09-19T08:08:38;7.90;;;7.00;;
1775;SDS011;885;42.626;23.200;2023-09-19T08:11:05;9.10;;;8.00;;
1775;SDS011;885;42.626;23.200;2023-09-19T08:13:36;7.73;;;7.00;;
1775;SDS011;885;42.626;23.200;2023-09-19T08:16:06;8.43;;;7.63;;
1775;SDS011;885;42.626;23.200;2023-09-19T08:18:33;9.47;;;7.73;;
1775;SDS011;885;42.626;23.200;2023-09-19T08:21:01;9.13;;;8.33;;
1775;SDS011;885;42.626;23.200;2023-09-19T08:23:28;8.27;;;7.43;;
1775;SDS011;885;42.626;23.200;2023-09-19T08:25:58;7.50;;;6.80;;
1775;SDS011;885;42.626;23.200;2023-09-19T08:28:28;8.30;;;7.50;;
1775;SDS011;885;42.626;23.200;2023-09-19T08:30:55;9.20;;;7.20;;
1775;SDS011;885;42.626;23.200;2023-09-19T08:33:23;8.23;;;7.43;;
1775;SDS011;885;42.626;23.200;2023-09-19T08:35:50;11.17;;;7.60;;
1775;SDS011;885;42.626;23.200;2023-09-19T08:38:20;10.27;;;7.60;;
1775;SDS011;885;42.626;23.200;2023-09-19T08:40:46;8.30;;;7.40;;
1775;SDS011;885;42.626;23.200;2023-09-19T08:43:13;9.73;;;7.03;;
1775;SDS011;885;42.626;23.200;2023-09-19T08:45:40;9.37;;;8.40;;
1775;SDS011;885;42.626;23.200;2023-09-19T08:48:19;8.30;;;7.43;;
1775;SDS011;885;42.626;23.200;2023-09-19T08:50:51;9.80;;;7.97;;
1775;SDS011;885;42.626;23.200;2023-09-19T08:53:28;9.43;;;8.43;;
1775;SDS011;885;42.626;23.200;2023-09-19T08:56:01;8.10;;;7.30;;
1775;SDS011;885;42.626;23.200;2023-09-19T08:58:39;10.70;;;7.27;;
1775;SDS011;885;42.626;23.200;2023-09-19T09:01:12;10.17;;;7.80;;
1775;SDS011;885;42.626;23.200;2023-09-19T09:03:41;10.13;;;7.57;;
1775;SDS011;885;42.626;23.200;2023-09-19T09:06:11;8.10;;;7.30;;
1775;SDS011;885;42.626;23.200;2023-09-19T09:08:42;8.37;;;7.43;;
1775;SDS011;885;42.626;23.200;2023-09-19T09:11:09;8.50;;;7.60;;
1775;SDS011;885;42.626;23.200;2023-09-19T09:13:37;11.10;;;7.87;;
1775;SDS011;885;42.626;23.200;2023-09-19T09:16:04;9.13;;;8.00;;
1775;SDS011;885;42.626;23.200;2023-09-19T09:18:31;7.53;;;6.83;;
1775;SDS011;885;42.626;23.200;2023-09-19T09:20:58;9.83;;;8.37;;
1775;SDS011;885;42.626;23.200;2023-09-19T09:23:27;8.70;;;7.77;;
1775;SDS011;885;42.626;23.200;2023-09-19T09:25:56;9.57;;;8.70;;
1775;SDS011;885;42.626;23.200;2023-09-19T09:28:24;8.47;;;7.30;;
1775;SDS011;885;42.626;23.200;2023-09-19T09:30:53;12.00;;;8.67;;
1775;SDS011;885;42.626;23.200;2023-09-19T09:33:20;8.87;;;7.97;;
1775;SDS011;885;42.626;23.200;2023-09-19T09:35:51;12.00;;;8.23;;
1775;SDS011;885;42.626;23.200;2023-09-19T09:38:21;10.47;;;7.83;;
1775;SDS011;885;42.626;23.200;2023-09-19T09:40:52;8.63;;;7.90;;
1775;SDS011;885;42.626;23.200;2023-09-19T09:43:27;10.67;;;7.60;;
1775;SDS011;885;42.626;23.200;2023-09-19T09:46:08;13.50;;;8.00;;
1775;SDS011;885;42.626;23.200;2023-09-19T09:49:05;8.77;;;8.03;;
1775;SDS011;885;42.626;23.200;2023-09-19T09:51:41;8.53;;;7.73;;
1775;SDS011;885;42.626;23.200;2023-09-19T09:54:12;9.27;;;8.13;;
1775;SDS011;885;42.626;23.200;2023-09-19T09:56:56;11.90;;;9.13;;
1775;SDS011;885;42.626;23.200;2023-09-19T10:02:21;9.43;;;8.33;;
1775;SDS011;885;42.626;23.200;2023-09-19T10:04:54;11.13;;;8.60;;
1775;SDS011;885;42.626;23.200;2023-09-19T10:07:40;8.40;;;7.67;;
1775;SDS011;885;42.626;23.200;2023-09-19T10:10:13;9.90;;;8.87;;
1775;SDS011;885;42.626;23.200;2023-09-19T10:12:45;11.93;;;8.90;;
1775;SDS011;885;42.626;23.200;2023-09-19T10:15:15;10.80;;;8.37;;
1775;SDS011;885;42.626;23.200;2023-09-19T10:17:45;10.40;;;8.03;;
1775;SDS011;885;42.626;23.200;2023-09-19T10:20:14;11.77;;;8.30;;
1775;SDS011;885;42.626;23.200;2023-09-19T10:23:04;11.30;;;7.80;;
1775;SDS011;885;42.626;23.200;2023-09-19T10:25:36;9.00;;;6.70;;
1775;SDS011;885;42.626;23.200;2023-09-19T10:28:05;10.47;;;7.90;;
1775;SDS011;885;42.626;23.200;2023-09-19T10:30:37;9.00;;;7.30;;
1775;SDS011;885;42.626;23.200;2023-09-19T10:33:10;8.87;;;7.73;;
1775;SDS011;885;42.626;23.200;2023-09-19T10:35:38;10.50;;;7.53;;
1775;SDS011;885;42.626;23.200;2023-09-19T10:38:06;12.53;;;8.40;;
1775;SDS011;885;42.626;23.200;2023-09-19T10:40:36;11.47;;;7.83;;
1775;SDS011;885;42.626;23.200;2023-09-19T10:43:08;11.70;;;7.23;;
1775;SDS011;885;42.626;23.200;2023-09-19T10:45:41;8.07;;;6.63;;
1775;SDS011;885;42.626;23.200;2023-09-19T10:48:12;13.57;;;7.70;;
1775;SDS011;885;42.626;23.200;2023-09-19T10:50:42;8.00;;;6.73;;
1775;SDS011;885;42.626;23.200;2023-09-19T10:53:12;10.03;;;7.77;;
1775;SDS011;885;42.626;23.200;2023-09-19T10:55:41;9.10;;;8.00;;
1775;SDS011;885;42.626;23.200;2023-09-19T10:58:15;8.63;;;7.37;;
1775;SDS011;885;42.626;23.200;2023-09-19T11:00:55;10.47;;;6.80;;
1775;SDS011;885;42.626;23.200;2023-09-19T11:03:27;10.93;;;7.53;;
1775;SDS011;885;42.626;23.200;2023-09-19T11:06:06;11.27;;;6.97;;
1775;SDS011;885;42.626;23.200;2023-09-19T11:09:00;9.03;;;6.97;;
1775;SDS011;885;42.626;23.200;2023-09-19T11:11:47;7.60;;;6.80;;
1775;SDS011;885;42.626;23.200;2023-09-19T11:14:37;8.50;;;7.60;;
1775;SDS011;885;42.626;23.200;2023-09-19T11:23:20;9.63;;;7.60;;
1775;SDS011;885;42.626;23.200;2023-09-19T11:25:48;6.77;;;6.10;;
1775;SDS011;885;42.626;23.200;2023-09-19T11:34:47;10.03;;;7.37;;
1775;SDS011;885;42.626;23.200;2023-09-19T11:40:27;9.50;;;7.37;;
1775;SDS011;885;42.626;23.200;2023-09-19T11:42:55;8.13;;;7.37;;
1775;SDS011;885;42.626;23.200;2023-09-19T11:48:27;9.40;;;7.90;;
1775;SDS011;885;42.626;23.200;2023-09-19T11:50:57;9.73;;;7.57;;
1775;SDS011;885;42.626;23.200;2023-09-19T11:53:24;7.83;;;7.03;;
1775;SDS011;885;42.626;23.200;2023-09-19T11:55:58;9.80;;;6.80;;
1775;SDS011;885;42.626;23.200;2023-09-19T11:58:26;16.30;;;7.67;;
1775;SDS011;885;42.626;23.200;2023-09-19T12:00:54;12.03;;;7.67;;
1775;SDS011;885;42.626;23.200;2023-09-19T12:03:24;10.00;;;7.27;;
1775;SDS011;885;42.626;23.200;2023-09-19T12:05:57;11.73;;;7.10;;
1775;SDS011;885;42.626;23.200;2023-09-19T12:08:25;8.27;;;7.40;;
1775;SDS011;885;42.626;23.200;2023-09-19T12:10:52;7.40;;;6.73;;
1775;SDS011;885;42.626;23.200;2023-09-19T12:13:20;7.57;;;6.77;;
1775;SDS011;885;42.626;23.200;2023-09-19T12:15:47;8.87;;;7.20;;
1775;SDS011;885;42.626;23.200;2023-09-19T12:18:26;8.93;;;7.00;;
1775;SDS011;885;42.626;23.200;2023-09-19T12:20:54;8.40;;;7.17;;
1775;SDS011;885;42.626;23.200;2023-09-19T12:23:25;9.90;;;7.50;;
1775;SDS011;885;42.626;23.200;2023-09-19T12:25:52;8.10;;;7.30;;
1775;SDS011;885;42.626;23.200;2023-09-19T12:28:22;8.37;;;7.23;;
1775;SDS011;885;42.626;23.200;2023-09-19T12:30:53;11.90;;;7.80;;
1775;SDS011;885;42.626;23.200;2023-09-19T12:33:21;9.97;;;8.47;;
1775;SDS011;885;42.626;23.200;2023-09-19T12:35:52;8.70;;;7.70;;
1775;SDS011;885;42.626;23.200;2023-09-19T12:38:23;11.70;;;9.07;;
1775;SDS011;885;42.626;23.200;2023-09-19T12:40:54;9.77;;;7.87;;
1775;SDS011;885;42.626;23.200;2023-09-19T12:43:24;10.60;;;6.40;;
1775;SDS011;885;42.626;23.200;2023-09-19T12:45:51;9.90;;;7.10;;
1775;SDS011;885;42.626;23.200;2023-09-19T12:48:19;14.77;;;7.00;;
1775;SDS011;885;42.626;23.200;2023-09-19T12:51:01;8.73;;;7.80;;
1775;SDS011;885;42.626;23.200;2023-09-19T12:53:32;7.50;;;6.70;;
1775;SDS011;885;42.626;23.200;2023-09-19T12:56:03;12.80;;;8.10;;
1775;SDS011;885;42.626;23.200;2023-09-19T12:58:32;8.60;;;7.20;;
1775;SDS011;885;42.626;23.200;2023-09-19T13:01:00;10.40;;;8.03;;
1775;SDS011;885;42.626;23.200;2023-09-19T13:03:28;8.57;;;7.77;;
1775;SDS011;885;42.626;23.200;2023-09-19T13:05:57;9.87;;;7.97;;
1775;SDS011;885;42.626;23.200;2023-09-19T13:08:28;10.83;;;7.07;;
1775;SDS011;885;42.626;23.200;2023-09-19T13:11:03;9.47;;;6.43;;
1775;SDS011;885;42.626;23.200;2023-09-19T13:13:34;11.90;;;7.97;;
1775;SDS011;885;42.626;23.200;2023-09-19T13:16:02;8.87;;;6.93;;
1775;SDS011;885;42.626;23.200;2023-09-19T13:18:41;13.23;;;7.30;;
1775;SDS011;885;42.626;23.200;2023-09-19T13:21:11;8.10;;;6.77;;
1775;SDS011;885;42.626;23.200;2023-09-19T13:23:47;11.20;;;6.20;;
1775;SDS011;885;42.626;23.200;2023-09-19T13:26:16;11.90;;;6.03;;
1775;SDS011;885;42.626;23.200;2023-09-19T13:28:43;9.47;;;6.10;;
1775;SDS011;885;42.626;23.200;2023-09-19T13:31:10;7.03;;;6.33;;
1775;SDS011;885;42.626;23.200;2023-09-19T13:33:42;8.40;;;6.80;;
1775;SDS011;885;42.626;23.200;2023-09-19T13:36:10;8.03;;;6.50;;
1775;SDS011;885;42.626;23.200;2023-09-19T13:38:38;7.03;;;5.90;;
1775;SDS011;885;42.626;23.200;2023-09-19T13:41:05;6.80;;;6.00;;
1775;SDS011;885;42.626;23.200;2023-09-19T13:43:33;8.87;;;6.50;;
1775;SDS011;885;42.626;23.200;2023-09-19T13:46:00;7.33;;;6.00;;
1775;SDS011;885;42.626;23.200;2023-09-19T13:48:27;8.80;;;6.43;;
1775;SDS011;885;42.626;23.200;2023-09-19T13:50:55;7.73;;;5.57;;
1775;SDS011;885;42.626;23.200;2023-09-19T13:53:22;9.67;;;6.10;;
1775;SDS011;885;42.626;23.200;2023-09-19T13:55:51;6.30;;;5.70;;
1775;SDS011;885;42.626;23.200;2023-09-19T13:58:17;7.63;;;6.03;;
1775;SDS011;885;42.626;23.200;2023-09-19T14:00:47;9.10;;;5.80;;
1775;SDS011;885;42.626;23.200;2023-09-19T14:03:14;10.23;;;6.90;;
1775;SDS011;885;42.626;23.200;2023-09-19T14:05:41;9.10;;;6.53;;
1775;SDS011;885;42.626;23.200;2023-09-19T14:08:08;7.00;;;5.83;;
1775;SDS011;885;42.626;23.200;2023-09-19T14:10:35;7.43;;;6.67;;
1775;SDS011;885;42.626;23.200;2023-09-19T14:13:02;9.70;;;6.40;;
1775;SDS011;885;42.626;23.200;2023-09-19T14:15:29;6.57;;;5.80;;
1775;SDS011;885;42.626;23.200;2023-09-19T14:17:58;5.87;;;5.30;;
1775;SDS011;885;42.626;23.200;2023-09-19T14:20:25;6.73;;;6.03;;
1775;SDS011;885;42.626;23.200;2023-09-19T14:22:53;9.07;;;5.87;;
1775;SDS011;885;42.626;23.200;2023-09-19T14:25:20;5.87;;;5.27;;
1775;SDS011;885;42.626;23.200;2023-09-19T14:27:47;7.17;;;6.47;;
1775;SDS011;885;42.626;23.200;2023-09-19T14:30:14;7.13;;;6.43;;
1775;SDS011;885;42.626;23.200;2023-09-19T14:32:41;8.40;;;6.30;;
1775;SDS011;885;42.626;23.200;2023-09-19T14:35:09;5.50;;;5.00;;
1775;SDS011;885;42.626;23.200;2023-09-19T14:37:40;6.67;;;5.27;;
1775;SDS011;885;42.626;23.200;2023-09-19T14:40:07;9.67;;;7.10;;
1775;SDS011;885;42.626;23.200;2023-09-19T14:42:35;7.77;;;6.20;;
1775;SDS011;885;42.626;23.200;2023-09-19T14:45:05;7.33;;;6.13;;
1775;SDS011;885;42.626;23.200;2023-09-19T14:47:32;15.03;;;6.00;;
1775;SDS011;885;42.626;23.200;2023-09-19T14:50:00;7.27;;;5.87;;
1775;SDS011;885;42.626;23.200;2023-09-19T14:52:32;6.97;;;6.10;;
1775;SDS011;885;42.626;23.200;2023-09-19T14:55:01;7.73;;;5.83;;
1775;SDS011;885;42.626;23.200;2023-09-19T14:57:29;7.37;;;6.60;;
1775;SDS011;885;42.626;23.200;2023-09-19T14:59:56;12.33;;;6.30;;
1775;SDS011;885;42.626;23.200;2023-09-19T15:02:23;7.40;;;6.07;;
1775;SDS011;885;42.626;23.200;2023-09-19T15:04:51;7.50;;;6.70;;
1775;SDS011;885;42.626;23.200;2023-09-19T15:07:18;6.13;;;5.37;;
1775;SDS011;885;42.626;23.200;2023-09-19T15:09:46;7.37;;;5.60;;
1775;SDS011;885;42.626;23.200;2023-09-19T15:12:13;6.90;;;6.30;;
1775;SDS011;885;42.626;23.200;2023-09-19T15:14:42;7.40;;;6.60;;
1775;SDS011;885;42.626;23.200;2023-09-19T15:17:08;10.30;;;6.73;;
1775;SDS011;885;42.626;23.200;2023-09-19T15:19:35;8.23;;;6.30;;
1775;SDS011;885;42.626;23.200;2023-09-19T15:22:03;7.53;;;6.83;;
1775;SDS011;885;42.626;23.200;2023-09-19T15:24:30;6.57;;;5.83;;
1775;SDS011;885;42.626;23.200;2023-09-19T15:26:59;9.50;;;7.10;;
1775;SDS011;885;42.626;23.200;2023-09-19T15:29:26;8.40;;;6.57;;
1775;SDS011;885;42.626;23.200;2023-09-19T15:31:54;8.00;;;6.83;;
1775;SDS011;885;42.626;23.200;2023-09-19T15:34:24;8.00;;;6.30;;
1775;SDS011;885;42.626;23.200;2023-09-19T15:36:50;8.30;;;7.50;;